Time;durP1;ratioP1;P1;durP2;ratioP2;P2;SDS_P1;SDS_P2;PMS_P1;PMS_P2;Temp;Humidity;BMP_temperature;BMP_pressure;BME280_temperature;BME280_humidity;BME280_pressure;Samples;Min_cycle;Max_cycle;Signal;HPM_P1;HPM_P2
2022/08/10 00:01:49;;;;;;;3.60;3.25;;;19.00;99.90;;;-141.84;46.94;21200.16;5036575;28;20247;-70
2022/08/10 00:04:20;;;;;;;3.42;2.90;;;19.00;99.90;;;-141.84;47.45;21137.13;5036225;28;20309;-69
2022/08/10 00:06:51;;;;;;;3.40;2.80;;;18.90;99.90;;;-141.84;47.60;21157.47;5036361;28;20230;-70
2022/08/10 00:09:22;;;;;;;3.20;2.90;;;18.80;99.90;;;-141.84;47.27;21104.59;5036663;28;20355;-69
2022/08/10 00:11:50;;;;;;;3.58;3.28;;;18.80;99.90;;;-141.84;47.78;21100.53;5036779;28;20186;-70
2022/08/10 00:14:19;;;;;;;4.40;3.30;;;18.70;99.90;;;-141.84;47.88;21061.91;5037150;28;20198;-72
2022/08/10 00:16:47;;;;;;;3.15;2.92;;;18.70;99.90;;;-141.84;47.65;21139.16;5036414;28;20226;-70
2022/08/10 00:19:15;;;;;;;3.45;2.90;;;18.70;99.90;;;-141.84;48.11;21122.91;5036244;28;20320;-69
2022/08/10 00:21:45;;;;;;;4.25;3.03;;;18.60;99.90;;;-141.84;48.41;21092.41;5036174;28;20229;-70
2022/08/10 00:24:14;;;;;;;3.60;2.58;;;18.60;99.90;;;-141.84;48.57;21057.84;5036662;28;20595;-70
2022/08/10 00:26:44;;;;;;;3.58;3.28;;;18.50;99.90;;;-141.84;48.64;21057.84;5036629;28;20226;-71
2022/08/10 00:29:33;;;;;;;4.15;2.72;;;18.50;99.90;;;-141.84;48.78;21102.56;5036966;28;20198;-70
2022/08/10 00:32:01;;;;;;;2.60;2.40;;;18.50;99.90;;;-141.84;48.43;21055.81;5036354;28;20316;-71
2022/08/10 00:34:32;;;;;;;4.00;2.72;;;18.40;99.90;;;-141.84;49.10;21049.72;5036187;28;20252;-70
2022/08/10 00:37:01;;;;;;;3.05;2.75;;;18.40;99.90;;;-141.84;48.75;21057.84;5036220;28;20225;-70
2022/08/10 00:39:30;;;;;;;3.40;3.10;;;18.40;99.90;;;-141.84;49.27;21053.78;5036562;28;20233;-71
2022/08/10 00:42:06;;;;;;;4.43;3.10;;;18.30;99.90;;;-141.84;49.03;21047.69;5036151;28;20232;-71
2022/08/10 00:44:37;;;;;;;3.42;2.95;;;18.30;99.90;;;-141.84;49.34;21019.22;5037210;28;20192;-70
2022/08/10 00:47:06;;;;;;;3.47;3.15;;;18.20;99.90;;;-141.84;49.55;21000.91;5033416;28;20216;-70
2022/08/10 00:49:54;;;;;;;4.72;3.00;;;18.20;99.90;;;-141.84;49.82;21070.03;5033293;28;20230;-71
2022/08/10 00:52:25;;;;;;;3.72;2.90;;;18.10;99.90;;;-141.84;48.92;21086.31;5032809;28;20257;-70
2022/08/10 00:54:54;;;;;;;3.60;3.10;;;18.20;99.90;;;-141.84;49.09;21068.00;5033278;28;20731;-71
2022/08/10 00:57:25;;;;;;;3.60;3.30;;;18.20;99.90;;;-141.84;49.80;21029.38;5033155;28;20380;-71
2022/08/10 00:59:53;;;;;;;3.30;3.00;;;18.20;99.90;;;-141.84;50.07;21013.13;5032742;28;20210;-71
2022/08/10 01:02:29;;;;;;;5.00;2.92;;;18.10;99.90;;;-141.84;50.36;20980.59;5033321;28;20704;-70
2022/08/10 01:04:59;;;;;;;3.33;2.95;;;18.10;99.90;;;-141.84;50.61;21002.94;5032746;28;20284;-71
2022/08/10 01:07:56;;;;;;;3.88;3.30;;;18.00;99.90;;;-141.84;50.71;20964.31;5032752;28;20280;-70
2022/08/10 01:10:43;;;;;;;3.30;3.00;;;17.90;99.90;;;-141.84;50.67;20970.41;5033091;28;20226;-71
2022/08/10 01:13:24;;;;;;;3.83;3.25;;;17.90;99.90;;;-141.84;50.47;20980.59;5033129;28;20275;-71
2022/08/10 01:16:01;;;;;;;3.58;3.28;;;17.90;99.90;;;-141.84;50.52;20962.28;5032962;28;20232;-70
2022/08/10 01:18:42;;;;;;;4.50;3.40;;;18.00;99.90;;;-141.84;50.63;20982.63;5032869;28;20221;-70
2022/08/10 01:21:48;;;;;;;5.10;3.10;;;18.00;99.90;;;-141.84;50.76;20986.69;5033083;28;20312;-71
2022/08/10 01:24:50;;;;;;;3.55;2.85;;;17.90;99.90;;;-141.84;51.30;20939.94;5013107;28;20838;-71
2022/08/10 01:27:31;;;;;;;3.90;3.20;;;17.90;99.90;;;-141.84;50.99;20952.13;5013137;28;20226;-70
2022/08/10 01:30:07;;;;;;;3.78;3.47;;;17.90;99.90;;;-141.84;51.35;20931.78;5013254;28;20366;-69
2022/08/10 01:32:49;;;;;;;4.13;3.13;;;17.80;99.90;;;-141.84;51.62;20939.94;5013836;28;20600;-71
2022/08/10 01:35:26;;;;;;;3.63;3.25;;;17.80;99.90;;;-141.84;51.99;20911.47;5012671;28;20680;-69
2022/08/10 01:38:05;;;;;;;4.03;3.63;;;17.70;99.90;;;-141.84;51.61;20935.88;5012477;28;20283;-70
2022/08/10 01:40:38;;;;;;;3.70;3.40;;;17.70;99.90;;;-141.84;51.60;20935.88;5012675;28;20795;-71
2022/08/10 01:43:13;;;;;;;4.00;3.30;;;17.70;99.90;;;-141.84;51.42;20964.31;5012421;28;20302;-68
2022/08/10 01:45:51;;;;;;;3.85;3.47;;;17.80;99.90;;;-141.84;51.78;20933.81;5012439;28;20305;-70
2022/08/10 01:48:27;;;;;;;4.43;3.28;;;17.70;99.90;;;-141.84;51.99;20907.41;5012531;28;20238;-70
2022/08/10 01:51:04;;;;;;;3.45;3.15;;;17.70;99.90;;;-141.84;52.37;20899.28;5023526;28;20208;-70
2022/08/10 01:53:41;;;;;;;4.82;3.50;;;17.70;99.90;;;-141.84;52.37;20921.63;5032483;28;20285;-71
2022/08/10 01:56:13;;;;;;;6.10;3.45;;;17.70;99.90;;;-141.84;52.58;20921.63;5031953;28;20280;-70
2022/08/10 01:58:46;;;;;;;3.70;3.40;;;17.70;99.90;;;-141.84;52.62;20889.09;5031722;28;20240;-70
2022/08/10 02:01:22;;;;;;;3.83;3.35;;;17.60;99.90;;;-141.84;52.87;20901.31;5031957;28;20234;-70
2022/08/10 02:03:54;;;;;;;3.70;3.40;;;17.50;99.90;;;-141.84;52.55;20935.88;5031544;28;20896;-71
2022/08/10 02:06:36;;;;;;;5.47;3.65;;;17.60;99.90;;;-141.84;52.46;20907.41;5031702;28;20272;-71
2022/08/10 02:09:07;;;;;;;4.95;3.40;;;17.60;99.90;;;-141.84;52.79;20905.38;5031500;28;20656;-71
2022/08/10 02:11:37;;;;;;;3.63;3.33;;;17.60;99.90;;;-141.84;52.82;20931.78;5032073;28;20186;-71
2022/08/10 02:14:32;;;;;;;4.40;3.30;;;17.60;99.90;;;-141.84;52.80;20901.31;5032139;28;20229;-70
2022/08/10 02:17:10;;;;;;;5.95;3.63;;;17.60;99.90;;;-141.84;53.53;20860.66;5031358;28;20233;-70
2022/08/10 02:20:05;;;;;;;5.22;3.50;;;17.50;99.90;;;-141.84;53.56;20876.91;5030727;28;20705;-71
2022/08/10 02:22:35;;;;;;;6.10;3.40;;;17.50;99.90;;;-141.84;53.74;20846.41;5031342;28;20236;-70
2022/08/10 02:25:09;;;;;;;4.70;3.30;;;17.50;99.90;;;-141.84;53.71;20846.41;5031479;28;20726;-70
2022/08/10 02:28:00;;;;;;;4.00;3.63;;;17.40;99.90;;;-141.84;53.77;20899.28;5031428;28;20229;-71
2022/08/10 02:30:30;;;;;;;3.47;3.13;;;17.40;99.90;;;-141.84;53.44;20891.13;5031451;28;20405;-70
2022/08/10 02:33:03;;;;;;;4.40;2.90;;;17.50;99.90;;;-141.84;53.51;20876.91;5031430;28;20273;-70
2022/08/10 02:35:34;;;;;;;4.65;3.20;;;17.50;99.90;;;-141.84;53.47;20909.44;5031673;28;20282;-70
2022/08/10 02:38:32;;;;;;;5.72;3.78;;;17.40;99.90;;;-141.84;53.69;20872.84;5031548;28;20288;-70
2022/08/10 02:41:29;;;;;;;3.75;3.28;;;17.40;99.90;;;-141.84;53.91;20874.88;5031427;28;20207;-71
2022/08/10 02:44:27;;;;;;;3.95;3.38;;;17.40;99.90;;;-141.84;54.16;20878.94;5030924;28;20222;-71
2022/08/10 02:47:31;;;;;;;3.85;3.50;;;17.30;99.90;;;-141.84;54.29;20834.22;5011156;28;20238;-69
2022/08/10 02:50:28;;;;;;;3.63;3.33;;;17.30;99.90;;;-141.84;54.36;20891.13;5030715;28;20233;-71
2022/08/10 02:53:05;;;;;;;4.65;3.97;;;17.30;99.90;;;-141.84;54.08;20846.41;5011957;28;20222;-70
2022/08/10 02:55:42;;;;;;;5.18;3.83;;;17.30;99.90;;;-141.84;54.05;20864.72;5010907;28;20240;-69
2022/08/10 02:58:17;;;;;;;5.32;3.60;;;17.30;99.90;;;-141.84;54.20;20858.59;5011004;28;20226;-71
2022/08/10 03:00:53;;;;;;;5.80;4.18;;;17.30;99.90;;;-141.84;54.40;20848.44;5020028;28;20275;-71
2022/08/10 03:03:26;;;;;;;7.00;3.85;;;17.30;99.90;;;-141.84;54.47;20852.50;5024628;28;20226;-69
2022/08/10 03:06:03;;;;;;;4.18;3.50;;;17.30;99.90;;;-141.84;54.59;20883.00;5010832;28;20734;-71
2022/08/10 03:08:39;;;;;;;6.05;3.47;;;17.30;99.90;;;-141.84;55.01;20840.31;5011290;28;20714;-71
2022/08/10 03:11:13;;;;;;;3.92;3.58;;;17.30;99.90;;;-141.84;54.28;20854.53;5010604;28;20732;-70
2022/08/10 03:13:44;;;;;;;5.13;3.70;;;17.40;99.90;;;-141.84;54.18;20899.28;5010815;28;20224;-70
2022/08/10 03:16:29;;;;;;;5.03;3.70;;;17.50;99.90;;;-141.84;54.35;20893.16;5010402;28;20226;-70
2022/08/10 03:19:04;;;;;;;4.55;4.13;;;17.40;99.90;;;-141.84;54.67;20880.97;5010641;28;20234;-71
2022/08/10 03:21:37;;;;;;;4.63;3.55;;;17.40;99.90;;;-141.84;54.90;20874.88;5010802;28;20228;-70
2022/08/10 03:24:09;;;;;;;3.85;3.42;;;17.40;99.90;;;-141.84;54.68;20891.13;5010802;28;20222;-70
2022/08/10 03:26:58;;;;;;;3.78;3.35;;;17.40;99.90;;;-141.84;54.82;20854.53;5010563;28;20205;-71
2022/08/10 03:29:28;;;;;;;5.47;3.72;;;17.50;99.90;;;-141.84;55.01;20876.91;5011228;28;20294;-70
2022/08/10 03:32:18;;;;;;;3.95;3.42;;;17.50;99.90;;;-141.84;54.20;20956.19;5030677;28;20206;-72
2022/08/10 03:34:47;;;;;;;4.57;3.40;;;17.60;99.90;;;-141.84;53.89;20944.00;5030003;28;20314;-71
2022/08/10 03:37:17;;;;;;;3.90;3.60;;;17.70;99.90;;;-141.84;54.65;20913.50;5030182;28;20225;-71
2022/08/10 03:39:45;;;;;;;5.55;3.78;;;17.60;99.90;;;-141.84;55.01;20872.84;5030338;28;20314;-70
2022/08/10 03:42:16;;;;;;;4.70;3.53;;;17.60;99.90;;;-141.84;55.05;20895.19;5030390;28;20313;-70
2022/08/10 03:44:45;;;;;;;4.72;3.90;;;17.60;99.90;;;-141.84;54.83;20880.97;5030759;28;20194;-70
2022/08/10 03:47:19;;;;;;;3.63;3.30;;;17.60;99.90;;;-141.84;55.12;20891.13;5030798;28;20236;-70
2022/08/10 03:49:50;;;;;;;4.13;3.38;;;17.50;99.90;;;-141.84;54.98;20909.44;5029767;28;20308;-70
2022/08/10 03:52:21;;;;;;;5.15;3.95;;;17.60;99.90;;;-141.84;55.63;20874.88;5030039;28;20225;-70
2022/08/10 03:54:51;;;;;;;3.92;3.63;;;17.50;99.90;;;-141.84;55.54;20874.88;5030060;28;20675;-71
2022/08/10 03:57:21;;;;;;;5.50;3.70;;;17.50;99.90;;;-141.84;55.87;20858.59;5029886;28;20233;-71
2022/08/10 03:59:50;;;;;;;4.10;3.70;;;17.40;99.90;;;-141.84;55.84;20834.22;5030143;28;20201;-71
2022/08/10 04:02:20;;;;;;;4.05;3.65;;;17.40;99.90;;;-141.84;56.23;20807.78;5030564;28;20298;-70
2022/08/10 04:05:09;;;;;;;4.60;3.63;;;17.40;99.90;;;-141.84;56.40;20826.09;4990924;28;20214;-70
2022/08/10 04:07:39;;;;;;;5.18;3.70;;;17.30;99.90;;;-141.84;56.15;20870.81;5006454;28;20313;-71
2022/08/10 04:10:08;;;;;;;4.20;3.65;;;17.40;99.90;;;-141.84;56.20;20852.50;5010412;28;20321;-71
2022/08/10 04:12:40;;;;;;;3.78;3.47;;;17.40;99.90;;;-141.84;55.80;20878.94;5029081;28;20228;-70
2022/08/10 04:15:09;;;;;;;5.47;3.92;;;17.40;99.90;;;-141.84;55.47;20909.44;5029893;28;20246;-70
2022/08/10 04:17:38;;;;;;;4.40;4.00;;;17.50;99.90;;;-141.84;55.40;20901.31;5030377;28;20657;-70
2022/08/10 04:20:32;;;;;;;7.43;4.38;;;17.50;99.90;;;-141.84;55.38;20864.72;5030035;28;20234;-70
2022/08/10 04:23:08;;;;;;;5.38;4.20;;;17.50;99.90;;;-141.84;56.01;20858.59;5032587;28;20229;-71
2022/08/10 04:25:39;;;;;;;4.88;4.18;;;17.40;99.90;;;-141.84;56.59;20793.56;5033830;28;20231;-70
2022/08/10 04:28:08;;;;;;;4.07;3.67;;;17.40;99.90;;;-141.84;57.06;20771.19;5033592;28;20230;-70
2022/08/10 04:30:39;;;;;;;4.47;4.07;;;17.30;99.90;;;-141.84;57.40;20773.22;5033833;28;20246;-71
2022/08/10 04:33:10;;;;;;;4.47;3.90;;;17.30;99.90;;;-141.84;57.21;20836.25;5033409;28;20242;-70
2022/08/10 04:35:40;;;;;;;4.40;3.70;;;17.20;99.90;;;-141.84;56.92;20836.25;5033973;28;20185;-70
2022/08/10 04:38:12;;;;;;;4.90;3.78;;;17.20;99.90;;;-141.84;56.92;20820.00;5029749;28;20546;-70
2022/08/10 04:40:41;;;;;;;4.80;3.60;;;17.20;99.90;;;-141.84;57.20;20809.81;5038725;28;20808;-71
2022/08/10 04:43:11;;;;;;;4.25;3.85;;;17.20;99.90;;;-141.84;57.27;20775.25;5024355;28;20240;-70
2022/08/10 04:45:42;;;;;;;4.47;4.07;;;17.10;99.90;;;-141.84;57.66;20793.56;5019285;28;20299;-70
2022/08/10 04:48:21;;;;;;;4.00;3.60;;;17.20;99.90;;;-141.84;56.65;20862.69;5029063;28;20245;-71
2022/08/10 04:51:11;;;;;;;4.72;4.30;;;17.30;99.90;;;-141.84;56.01;20901.31;5022936;28;20608;-70
2022/08/10 04:53:51;;;;;;;5.43;3.80;;;17.40;99.90;;;-141.84;55.78;20913.50;5021339;28;20190;-70
2022/08/10 04:56:34;;;;;;;4.38;3.95;;;17.50;99.90;;;-141.84;55.61;20899.28;5039283;28;20230;-70
2022/08/10 04:59:03;;;;;;;4.38;3.95;;;17.60;99.90;;;-141.84;55.69;20893.16;5023585;28;20767;-71
2022/08/10 05:01:32;;;;;;;6.65;4.13;;;17.70;99.90;;;-141.84;55.51;20911.47;5057054;28;20370;-71
2022/08/10 05:04:20;;;;;;;10.43;4.30;;;17.70;99.90;;;-141.84;55.42;20935.88;5030168;28;20234;-70
2022/08/10 05:07:05;;;;;;;4.97;3.97;;;17.90;99.90;;;-141.84;53.15;21163.56;5028455;28;20351;-70
2022/08/10 05:09:34;;;;;;;4.05;3.67;;;18.30;99.90;;;-141.84;50.09;21309.94;5034847;28;20322;-70
2022/08/10 05:12:23;;;;;;;4.72;3.60;;;19.00;99.90;;;-141.84;48.92;21377.03;5029950;28;20701;-70
2022/08/10 05:14:51;;;;;;;4.85;3.55;;;19.60;99.90;;;-141.84;47.57;21555.97;5019504;28;20206;-71
2022/08/10 05:17:22;;;;;;;5.13;3.88;;;20.00;99.90;;;-141.84;45.64;21643.38;5047121;28;20221;-70
2022/08/10 05:19:51;;;;;;;4.80;3.80;;;20.50;99.90;;;-141.84;46.41;21633.22;5032720;28;20240;-70
2022/08/10 05:22:34;;;;;;;4.82;4.30;;;20.70;99.90;;;-141.84;47.03;21533.59;5022890;28;20236;-70
2022/08/10 05:25:10;;;;;;;6.68;4.00;;;20.60;99.90;;;-141.84;48.27;21448.19;5019484;28;20309;-70
2022/08/10 05:27:39;;;;;;;6.80;4.40;;;20.50;99.90;;;-141.84;48.58;21415.66;5022664;28;20316;-70
2022/08/10 05:30:12;;;;;;;6.72;4.13;;;20.50;99.90;;;-141.84;48.77;21413.63;5034245;28;20253;-69
2022/08/10 05:32:40;;;;;;;8.93;4.32;;;20.40;99.90;;;-141.84;49.90;21354.66;5044005;28;20201;-70
2022/08/10 05:35:29;;;;;;;6.88;3.72;;;20.20;99.90;;;-141.84;49.59;21342.47;5022333;28;20484;-69
2022/08/10 05:38:21;;;;;;;5.57;4.22;;;20.20;99.90;;;-141.84;49.75;21346.53;5031039;28;20697;-69
2022/08/10 05:40:50;;;;;;;7.38;4.68;;;20.10;99.90;;;-141.84;49.64;21354.66;5027768;28;20657;-69
2022/08/10 05:43:21;;;;;;;8.35;3.90;;;20.10;99.90;;;-141.84;50.13;21364.84;5025350;28;20571;-69
2022/08/10 05:45:51;;;;;;;6.65;4.40;;;20.10;99.90;;;-141.84;50.14;21314.00;5031800;28;20249;-70
2022/08/10 05:48:41;;;;;;;10.40;4.05;;;20.10;99.90;;;-141.84;50.18;21379.06;5031285;28;20226;-69
2022/08/10 05:51:29;;;;;;;6.35;3.97;;;20.20;99.90;;;-141.84;49.57;21409.56;5020240;28;20225;-69
2022/08/10 05:54:00;;;;;;;5.60;4.20;;;20.40;99.90;;;-141.84;49.07;21442.09;5026111;28;20187;-69
2022/08/10 05:56:39;;;;;;;6.72;4.00;;;20.50;99.90;;;-141.84;48.88;21478.69;5012762;28;20210;-70
2022/08/10 05:59:30;;;;;;;7.13;4.18;;;20.70;99.90;;;-141.84;48.96;21452.25;5006503;28;20293;-69
2022/08/10 06:02:32;;;;;;;6.13;3.97;;;20.70;99.90;;;-141.84;48.46;21444.13;5021181;28;20217;-69
2022/08/10 06:05:09;;;;;;;5.32;4.13;;;20.70;99.90;;;-141.84;48.69;21492.94;5011942;28;20238;-71
2022/08/10 06:07:46;;;;;;;7.72;4.20;;;20.80;99.90;;;-141.84;48.49;21482.75;5007747;28;20406;-69
2022/08/10 06:10:17;;;;;;;4.82;4.10;;;20.90;99.90;;;-141.84;48.68;21484.78;5021403;28;20311;-70
2022/08/10 06:16:07;;;;;;;6.88;4.20;;;21.10;99.90;;;-141.84;48.07;21525.47;5025342;28;20228;-69
2022/08/10 06:18:36;;;;;;;4.47;3.83;;;21.20;99.90;;;-141.84;48.66;21492.94;5004718;28;20243;-71
2022/08/10 06:21:08;;;;;;;4.13;3.72;;;21.10;99.90;;;-141.84;48.77;21533.59;4988205;28;20310;-71
2022/08/10 06:23:37;;;;;;;10.00;4.38;;;21.10;99.90;;;-141.84;48.22;21474.63;4992982;28;20219;-70
2022/08/10 06:26:08;;;;;;;6.35;4.20;;;21.10;99.90;;;-141.84;48.38;21521.41;5001568;28;20305;-71
2022/08/10 06:28:52;;;;;;;5.55;3.95;;;21.10;99.90;;;-141.84;48.62;21511.22;5010969;28;20649;-72
2022/08/10 06:31:36;;;;;;;5.20;4.25;;;21.20;99.90;;;-141.84;48.55;21533.59;5030895;28;20228;-70
2022/08/10 06:34:22;;;;;;;4.72;4.25;;;21.20;99.90;;;-141.84;48.36;21574.25;5017140;28;20233;-70
2022/08/10 06:36:52;;;;;;;7.93;4.50;;;21.30;99.90;;;-141.84;48.09;21549.84;5016184;28;20311;-70
2022/08/10 06:39:22;;;;;;;5.57;4.40;;;21.30;99.90;;;-141.84;48.27;21537.66;5032614;28;20225;-71
2022/08/10 06:42:13;;;;;;;5.72;4.30;;;21.20;99.90;;;-141.84;48.21;21564.09;5009898;28;20202;-70
2022/08/10 06:44:56;;;;;;;8.40;4.43;;;21.30;99.90;;;-141.84;48.22;21580.34;5028791;28;20274;-69
2022/08/10 06:47:32;;;;;;;4.60;4.20;;;21.30;99.90;;;-141.84;48.16;21572.22;5012616;28;20194;-71
2022/08/10 06:50:10;;;;;;;5.20;4.70;;;21.40;99.90;;;-141.84;48.00;21570.19;5002011;28;20349;-70
2022/08/10 06:52:41;;;;;;;6.13;3.90;;;21.40;99.90;;;-141.84;47.83;21643.38;5024277;28;20713;-73
2022/08/10 06:55:14;;;;;;;5.85;4.20;;;21.50;99.90;;;-141.84;47.26;21602.72;5025016;28;20638;-71
2022/08/10 06:57:48;;;;;;;9.18;4.13;;;21.50;99.90;;;-141.84;47.88;21631.19;5025232;28;20581;-71
2022/08/10 07:00:32;;;;;;;4.63;4.20;;;21.50;99.90;;;-141.84;47.46;21641.34;5029576;28;20779;-70
2022/08/10 07:03:09;;;;;;;7.35;4.07;;;21.60;99.90;;;-141.84;47.67;21641.34;5047812;28;20196;-70
2022/08/10 07:05:46;;;;;;;8.88;4.00;;;21.70;99.90;;;-141.84;47.62;21651.53;5043348;28;20174;-72
2022/08/10 07:08:22;;;;;;;5.00;4.00;;;21.70;99.90;;;-141.84;46.69;21663.72;5024661;28;20302;-70
2022/08/10 07:10:53;;;;;;;4.18;3.78;;;21.70;99.90;;;-141.84;47.24;21627.13;5031896;28;20346;-70
2022/08/10 07:13:22;;;;;;;5.28;3.88;;;21.70;99.90;;;-141.84;47.23;21667.78;5034363;28;20228;-71
2022/08/10 07:16:14;;;;;;;7.60;3.92;;;21.80;99.90;;;-141.84;46.38;21665.75;5032742;28;20225;-71
2022/08/10 07:18:47;;;;;;;4.63;4.22;;;21.70;99.90;;;-141.84;46.10;21657.63;5031557;28;20388;-70
2022/08/10 07:21:18;;;;;;;6.07;4.10;;;21.80;99.90;;;-141.84;46.49;21688.13;5026514;28;20308;-70
2022/08/10 07:23:48;;;;;;;7.18;4.45;;;21.80;99.90;;;-141.84;45.81;21673.88;5032477;28;20282;-70
2022/08/10 07:26:30;;;;;;;7.20;4.13;;;21.90;99.90;;;-141.84;46.08;21690.16;5043442;28;20933;-69
2022/08/10 07:29:00;;;;;;;4.55;3.70;;;21.90;99.90;;;-141.84;46.21;21692.19;5031041;28;20233;-70
2022/08/10 07:31:32;;;;;;;4.90;3.90;;;21.90;99.90;;;-141.84;46.06;21726.75;5021659;28;20270;-70
2022/08/10 07:34:22;;;;;;;4.72;4.20;;;22.00;99.90;;;-141.84;44.88;21775.56;5022711;28;20602;-70
2022/08/10 07:37:01;;;;;;;6.30;3.75;;;22.10;99.90;;;-141.84;44.54;21808.09;5024697;28;20642;-71
2022/08/10 07:39:33;;;;;;;4.63;3.67;;;22.20;99.90;;;-141.84;44.50;21757.25;5031379;28;20283;-71
2022/08/10 07:42:25;;;;;;;4.70;3.72;;;22.20;99.90;;;-141.84;44.48;21789.78;5026291;28;20631;-71
2022/08/10 07:44:53;;;;;;;4.70;3.53;;;22.30;99.90;;;-141.84;44.47;21775.56;5022812;28;20232;-70
2022/08/10 07:47:34;;;;;;;6.20;3.97;;;22.30;99.90;;;-141.84;44.09;21838.59;5043709;28;20710;-69
2022/08/10 07:50:25;;;;;;;5.68;4.10;;;22.30;99.90;;;-141.84;43.80;21869.09;5005685;28;20301;-70
2022/08/10 07:53:01;;;;;;;7.45;3.75;;;22.50;99.90;;;-141.84;44.07;21842.66;5030416;28;20368;-71
2022/08/10 07:55:34;;;;;;;4.38;3.60;;;22.40;99.90;;;-141.84;44.31;21802.00;5006505;28;20230;-70
2022/08/10 07:58:30;;;;;;;3.80;3.30;;;22.30;99.90;;;-141.84;43.79;21822.31;4981682;28;20733;-70
2022/08/10 08:01:00;;;;;;;4.78;3.58;;;22.40;99.90;;;-141.84;43.52;21867.06;5044299;28;20682;-72
2022/08/10 08:03:33;;;;;;;6.57;4.22;;;22.50;99.90;;;-141.84;43.09;21879.25;5035175;28;20324;-70
2022/08/10 08:06:04;;;;;;;6.85;3.58;;;22.60;99.90;;;-141.84;43.31;21885.38;5015357;28;20278;-70
2022/08/10 08:08:44;;;;;;;6.53;3.70;;;22.80;99.90;;;-141.84;42.76;21948.41;5025552;28;20182;-70
2022/08/10 08:11:15;;;;;;;4.50;3.70;;;22.90;99.90;;;-141.84;41.77;21980.94;5012554;28;20254;-70
2022/08/10 08:13:55;;;;;;;6.07;3.60;;;23.00;99.90;;;-141.84;41.89;21995.16;5019088;28;20317;-70
2022/08/10 08:16:24;;;;;;;4.35;3.50;;;23.10;99.90;;;-141.84;42.01;22011.44;5011065;28;20304;-70
2022/08/10 08:18:56;;;;;;;3.90;3.17;;;23.20;99.90;;;-141.84;41.59;22035.84;5014755;28;20230;-69
2022/08/10 08:21:47;;;;;;;3.65;3.00;;;23.20;99.90;;;-141.84;41.49;21995.16;5009144;28;20240;-69
2022/08/10 08:24:39;;;;;;;6.55;3.60;;;23.20;99.90;;;-141.84;41.51;22046.00;5014517;28;20229;-70
2022/08/10 08:27:09;;;;;;;5.03;3.55;;;23.40;99.90;;;-141.84;40.85;22056.19;5014651;28;20233;-70
2022/08/10 08:29:44;;;;;;;6.45;3.80;;;23.40;99.90;;;-141.84;40.62;22054.13;5029259;28;20729;-71
2022/08/10 08:32:17;;;;;;;4.30;3.20;;;23.40;99.90;;;-141.84;40.78;22056.19;5028741;28;20320;-70
2022/08/10 08:34:53;;;;;;;4.15;3.10;;;23.40;99.90;;;-141.84;40.52;22086.69;5021795;28;20295;-70
2022/08/10 08:37:25;;;;;;;4.60;3.08;;;23.50;99.90;;;-141.84;40.00;22145.66;5022805;28;20244;-71
2022/08/10 08:40:18;;;;;;;5.45;3.17;;;23.60;99.90;;;-141.84;40.08;22157.84;5021436;28;20230;-71
2022/08/10 08:43:23;;;;;;;4.38;3.00;;;23.80;99.90;;;-141.84;39.13;22212.75;5016297;28;20614;-72
2022/08/10 08:46:49;;;;;;;5.38;2.92;;;23.90;99.90;;;-141.84;38.49;22212.75;5022079;28;20229;-70
2022/08/10 08:49:58;;;;;;;3.15;2.95;;;24.00;99.90;;;-141.84;38.62;22172.09;5017361;28;20230;-71
2022/08/10 08:53:02;;;;;;;3.53;2.90;;;24.00;99.90;;;-141.84;38.36;22255.47;5006402;28;20230;-70
2022/08/10 08:55:48;;;;;;;4.28;3.30;;;24.10;99.90;;;-141.84;38.35;22208.69;5018515;28;20808;-70
2022/08/10 08:58:51;;;;;;;4.07;2.65;;;24.20;99.90;;;-141.84;38.87;22210.72;5025087;28;20243;-70
2022/08/10 09:01:49;;;;;;;3.58;2.80;;;24.20;99.90;;;-141.84;38.39;22269.69;4964299;28;20233;-70
2022/08/10 09:04:40;;;;;;;4.28;2.80;;;24.30;99.90;;;-141.84;38.09;22261.56;5008218;28;20191;-70
2022/08/10 09:08:02;;;;;;;2.60;2.40;;;24.20;99.90;;;-141.84;37.43;22338.84;4988285;28;20273;-70
2022/08/10 09:10:43;;;;;;;3.30;2.80;;;24.40;99.90;;;-141.84;37.22;22334.78;4991018;28;20621;-71
2022/08/10 09:13:25;;;;;;;4.82;2.80;;;24.50;99.90;;;-141.84;36.84;22326.66;5003364;28;20256;-70
2022/08/10 09:16:08;;;;;;;2.75;2.55;;;24.50;99.90;;;-141.84;37.19;22326.66;5018255;28;20233;-71
2022/08/10 09:18:47;;;;;;;4.72;2.78;;;24.50;99.90;;;-141.84;37.39;22346.97;5027811;28;20248;-70
2022/08/10 09:21:27;;;;;;;7.97;3.22;;;24.60;99.90;;;-141.84;37.16;22389.69;5026694;28;20776;-69
2022/08/10 09:24:10;;;;;;;3.85;2.80;;;24.70;99.90;;;-141.84;37.28;22371.38;5027345;28;20281;-70
2022/08/10 09:26:49;;;;;;;3.08;2.70;;;24.70;99.90;;;-141.84;36.78;22397.81;5022013;28;20210;-71
2022/08/10 09:29:27;;;;;;;4.25;2.60;;;24.70;99.90;;;-141.84;36.48;22448.66;5001084;28;20222;-71
2022/08/10 09:32:08;;;;;;;4.28;2.80;;;24.90;99.90;;;-141.84;36.58;22477.13;5003308;28;20281;-71
2022/08/10 09:35:11;;;;;;;4.63;3.20;;;25.00;99.90;;;-141.84;36.47;22466.97;5017641;28;20240;-70
2022/08/10 09:38:13;;;;;;;3.25;3.00;;;25.00;99.90;;;-141.84;36.46;22530.00;5002604;28;20230;-71
2022/08/10 09:40:54;;;;;;;3.75;2.53;;;25.20;99.90;;;-141.84;35.40;22534.09;5016931;28;20235;-71
2022/08/10 09:43:43;;;;;;;3.83;2.67;;;25.30;99.90;;;-141.84;35.63;22554.41;5016130;28;20296;-70
2022/08/10 09:46:32;;;;;;;3.10;2.90;;;25.40;99.90;;;-141.84;35.78;22554.41;5013288;28;20321;-70
2022/08/10 09:49:15;;;;;;;3.28;2.30;;;25.40;99.90;;;-141.84;35.23;22572.72;5007927;28;20230;-69
2022/08/10 09:52:00;;;;;;;2.67;2.28;;;25.50;99.90;;;-141.84;34.95;22572.72;5024900;28;20275;-70
2022/08/10 09:54:44;;;;;;;5.55;2.45;;;25.50;99.90;;;-141.84;35.22;22572.72;5028286;28;20794;-70
2022/08/10 09:57:23;;;;;;;6.28;2.75;;;25.40;99.90;;;-141.84;34.88;22586.97;5030518;28;20718;-71
2022/08/10 10:00:15;;;;;;;5.60;2.72;;;25.40;99.90;;;-141.84;34.92;22477.13;5021949;28;20705;-71
2022/08/10 10:03:05;;;;;;;4.22;2.97;;;25.30;99.90;;;-141.84;35.62;22401.88;5017492;28;20218;-70
2022/08/10 10:05:48;;;;;;;3.85;2.72;;;25.00;99.90;;;-141.84;35.78;22446.63;5031745;28;20198;-71
2022/08/10 10:08:29;;;;;;;3.58;2.60;;;24.90;99.90;;;-141.84;35.27;22442.56;5007012;28;20281;-71
2022/08/10 10:11:11;;;;;;;2.70;2.50;;;24.90;99.90;;;-141.84;35.61;22477.13;5018580;28;20229;-71
2022/08/10 10:13:59;;;;;;;3.60;2.42;;;24.90;99.90;;;-141.84;34.99;22540.19;5028867;28;20309;-70
2022/08/10 10:17:03;;;;;;;4.40;2.60;;;25.10;99.90;;;-141.84;34.77;22570.69;5026477;28;20268;-72
2022/08/10 10:19:53;;;;;;;5.13;2.85;;;25.20;99.90;;;-141.84;34.80;22591.03;5019042;28;20237;-71
2022/08/10 10:22:42;;;;;;;3.30;2.75;;;25.30;99.90;;;-141.84;34.44;22589.00;5009188;28;20305;-70
2022/08/10 10:25:23;;;;;;;4.80;3.03;;;25.40;99.90;;;-141.84;34.03;22625.59;4994353;28;20234;-71
2022/08/10 10:28:35;;;;;;;3.95;3.08;;;25.40;99.90;;;-141.84;33.63;22607.31;4994552;28;20245;-71
2022/08/10 10:31:31;;;;;;;7.30;2.80;;;25.60;99.90;;;-141.84;33.81;22625.59;4998474;28;20257;-71
2022/08/10 10:34:16;;;;;;;3.20;2.90;;;25.50;99.90;;;-141.84;33.45;22650.00;5012479;28;20259;-71
2022/08/10 10:36:46;;;;;;;2.88;2.67;;;25.60;99.90;;;-141.84;34.03;22619.50;5010671;28;20256;-71
2022/08/10 10:39:18;;;;;;;4.25;2.72;;;25.70;99.90;;;-141.84;33.62;22725.25;5013182;28;20233;-70
2022/08/10 10:42:03;;;;;;;3.47;2.78;;;25.80;99.90;;;-141.84;34.08;22721.19;5003333;28;20207;-71
2022/08/10 10:44:46;;;;;;;5.13;3.03;;;25.80;99.90;;;-141.84;34.08;22696.78;5023946;28;20182;-70
2022/08/10 10:47:45;;;;;;;3.30;2.90;;;25.90;99.90;;;-141.84;33.90;22696.78;5000364;28;20233;-70
2022/08/10 10:50:22;;;;;;;3.88;2.90;;;25.80;99.90;;;-141.84;33.78;22770.00;5015188;28;20224;-70
2022/08/10 10:53:05;;;;;;;3.45;2.78;;;26.00;99.90;;;-141.84;33.71;22721.19;5025071;28;20229;-70
2022/08/10 10:55:45;;;;;;;4.05;3.50;;;25.90;99.90;;;-141.84;33.80;22688.66;5023979;28;20241;-70
2022/08/10 10:58:46;;;;;;;3.00;2.70;;;25.80;99.90;;;-141.84;33.89;22656.13;5035590;28;20305;-70